Página principal
METAR-TAF:

METAR-TAF

Aeroportos :

Aeroporto Internacional de Mitiga

Trípoli, Líbia

latitude: 32-54N, longitude: 13-17E, altura: 11 m

METAR: em falta

Hora: 13:39 (11:39 UTC)

Previsão

O boletim foi feito há 18 horas e 39 minutos, às 17:00 UTC
Previsão válida de 22 às 18 UTC a 23 às 18 UTC
Vento 15 kt de este
Visibilidade: 8000 m
Poucas nuvensa uma altura de 2500 ft

TAF: HLLM 221700Z 2218/2318 09015KT 8000 FEW025

Observações e previsões do tempo de mais de 4000 aeroportos (mensagens METAR e TAF).

As estações disponíveis são os pontos amarelos e vermelhos sobre o mapa.

Mova o rato sobre o mapa para ver o nome da estação.

Depois clique no ponto para visualizar as observações e previsões meteorológicas.

Para alterar o mapa : clique nos botões verdes com uma cruz preta para aumentar o zoom; no botão verde com uma pitada de zoom; ou nas setas verdes para mapas adjacentes.


METAR-TAF: